sensor_id;sensor_type;location;lat;lon;timestamp;temperature;humidity
7498;DHT22;3790;48.806;9.140;2023-03-04T00:01:11;1.50;99.90
7498;DHT22;3790;48.806;9.140;2023-03-04T00:06:14;1.60;99.90
7498;DHT22;3790;48.806;9.140;2023-03-04T00:11:15;1.70;99.90
7498;DHT22;3790;48.806;9.140;2023-03-04T00:16:15;1.60;99.90
7498;DHT22;3790;48.806;9.140;2023-03-04T00:21:16;1.70;99.90
7498;DHT22;3790;48.806;9.140;2023-03-04T00:26:16;1.60;99.90
7498;DHT22;3790;48.806;9.140;2023-03-04T00:31:19;1.50;99.90
7498;DHT22;3790;48.806;9.140;2023-03-04T00:36:20;1.60;99.90
7498;DHT22;3790;48.806;9.140;2023-03-04T00:41:20;1.50;99.90
7498;DHT22;3790;48.806;9.140;2023-03-04T00:46:21;1.50;99.90
7498;DHT22;3790;48.806;9.140;2023-03-04T00:51:21;1.50;99.90
7498;DHT22;3790;48.806;9.140;2023-03-04T00:56:22;1.40;99.90
7498;DHT22;3790;48.806;9.140;2023-03-04T01:01:22;1.30;99.90
7498;DHT22;3790;48.806;9.140;2023-03-04T01:06:23;1.20;99.90
7498;DHT22;3790;48.806;9.140;2023-03-04T01:11:23;1.10;99.90
7498;DHT22;3790;48.806;9.140;2023-03-04T01:16:24;1.00;99.90
7498;DHT22;3790;48.806;9.140;2023-03-04T01:21:24;1.00;99.90
7498;DHT22;3790;48.806;9.140;2023-03-04T01:26:25;0.90;99.90
7498;DHT22;3790;48.806;9.140;2023-03-04T01:31:25;0.70;99.90
7498;DHT22;3790;48.806;9.140;2023-03-04T01:36:26;0.80;99.90
7498;DHT22;3790;48.806;9.140;2023-03-04T01:41:27;0.60;99.90
7498;DHT22;3790;48.806;9.140;2023-03-04T01:46:29;0.60;99.90
7498;DHT22;3790;48.806;9.140;2023-03-04T01:51:29;0.60;99.90
7498;DHT22;3790;48.806;9.140;2023-03-04T01:56:35;0.50;99.90
7498;DHT22;3790;48.806;9.140;2023-03-04T02:01:38;0.50;99.90
7498;DHT22;3790;48.806;9.140;2023-03-04T02:06:40;0.40;99.90
7498;DHT22;3790;48.806;9.140;2023-03-04T02:11:41;0.40;99.90
7498;DHT22;3790;48.806;9.140;2023-03-04T02:16:43;0.20;99.90
7498;DHT22;3790;48.806;9.140;2023-03-04T02:21:43;0.10;99.90
7498;DHT22;3790;48.806;9.140;2023-03-04T02:26:44;0.10;99.90
7498;DHT22;3790;48.806;9.140;2023-03-04T02:31:48;0.00;99.90
7498;DHT22;3790;48.806;9.140;2023-03-04T02:36:52;-0.10;99.90
7498;DHT22;3790;48.806;9.140;2023-03-04T02:41:54;-0.20;99.90
7498;DHT22;3790;48.806;9.140;2023-03-04T02:46:56;-0.30;99.90
7498;DHT22;3790;48.806;9.140;2023-03-04T02:52:02;-0.40;99.90
7498;DHT22;3790;48.806;9.140;2023-03-04T02:57:06;-0.50;99.90
7498;DHT22;3790;48.806;9.140;2023-03-04T03:02:07;-0.60;99.90
7498;DHT22;3790;48.806;9.140;2023-03-04T03:07:08;-0.60;99.90
7498;DHT22;3790;48.806;9.140;2023-03-04T03:12:09;-0.70;99.90
7498;DHT22;3790;48.806;9.140;2023-03-04T03:17:09;-0.70;99.90
7498;DHT22;3790;48.806;9.140;2023-03-04T03:22:10;-0.70;99.90
7498;DHT22;3790;48.806;9.140;2023-03-04T03:27:10;-0.70;99.90
7498;DHT22;3790;48.806;9.140;2023-03-04T03:32:11;-0.80;99.90
7498;DHT22;3790;48.806;9.140;2023-03-04T03:37:11;-0.90;99.90
7498;DHT22;3790;48.806;9.140;2023-03-04T03:42:12;-0.90;99.90
7498;DHT22;3790;48.806;9.140;2023-03-04T03:47:12;-0.90;99.90
7498;DHT22;3790;48.806;9.140;2023-03-04T03:52:13;-0.90;99.90
7498;DHT22;3790;48.806;9.140;2023-03-04T03:57:13;-0.80;99.90
7498;DHT22;3790;48.806;9.140;2023-03-04T04:02:14;-0.90;99.90
7498;DHT22;3790;48.806;9.140;2023-03-04T04:07:14;-0.80;99.90
7498;DHT22;3790;48.806;9.140;2023-03-04T04:12:16;-0.80;99.90
7498;DHT22;3790;48.806;9.140;2023-03-04T04:17:16;-0.90;99.90
7498;DHT22;3790;48.806;9.140;2023-03-04T04:22:20;-1.00;99.90
7498;DHT22;3790;48.806;9.140;2023-03-04T04:27:20;-1.00;99.90
7498;DHT22;3790;48.806;9.140;2023-03-04T04:32:21;-1.00;99.90
7498;DHT22;3790;48.806;9.140;2023-03-04T04:37:22;-1.20;99.90
7498;DHT22;3790;48.806;9.140;2023-03-04T04:42:23;-1.30;99.90
7498;DHT22;3790;48.806;9.140;2023-03-04T04:47:23;-1.50;99.90
7498;DHT22;3790;48.806;9.140;2023-03-04T04:52:24;-1.50;99.90
7498;DHT22;3790;48.806;9.140;2023-03-04T04:57:24;-1.50;99.90
7498;DHT22;3790;48.806;9.140;2023-03-04T05:02:25;-1.50;99.90
7498;DHT22;3790;48.806;9.140;2023-03-04T05:07:25;-1.40;99.90
7498;DHT22;3790;48.806;9.140;2023-03-04T05:12:26;-1.50;99.90
7498;DHT22;3790;48.806;9.140;2023-03-04T05:17:26;-1.60;99.90
7498;DHT22;3790;48.806;9.140;2023-03-04T05:22:27;-1.80;99.90
7498;DHT22;3790;48.806;9.140;2023-03-04T05:27:27;-1.90;99.90
7498;DHT22;3790;48.806;9.140;2023-03-04T05:32:28;-2.00;99.90
7498;DHT22;3790;48.806;9.140;2023-03-04T05:37:28;-2.10;99.90
7498;DHT22;3790;48.806;9.140;2023-03-04T05:42:29;-2.00;99.90
7498;DHT22;3790;48.806;9.140;2023-03-04T05:47:30;-2.00;99.90
7498;DHT22;3790;48.806;9.140;2023-03-04T05:52:30;-2.10;99.90
7498;DHT22;3790;48.806;9.140;2023-03-04T05:57:31;-2.10;99.90
7498;DHT22;3790;48.806;9.140;2023-03-04T06:02:31;-2.00;99.90
7498;DHT22;3790;48.806;9.140;2023-03-04T06:07:32;-2.00;99.90
7498;DHT22;3790;48.806;9.140;2023-03-04T06:12:32;-2.00;99.90
7498;DHT22;3790;48.806;9.140;2023-03-04T06:17:32;-1.90;99.90
7498;DHT22;3790;48.806;9.140;2023-03-04T06:22:33;-1.80;99.90
7498;DHT22;3790;48.806;9.140;2023-03-04T06:27:34;-1.80;99.90
7498;DHT22;3790;48.806;9.140;2023-03-04T06:32:35;-1.80;99.90
7498;DHT22;3790;48.806;9.140;2023-03-04T06:37:35;-1.70;99.90
7498;DHT22;3790;48.806;9.140;2023-03-04T06:42:36;-1.50;99.90
7498;DHT22;3790;48.806;9.140;2023-03-04T06:47:38;-1.40;99.90
7498;DHT22;3790;48.806;9.140;2023-03-04T06:52:39;-1.30;99.90
7498;DHT22;3790;48.806;9.140;2023-03-04T06:57:39;-1.20;99.90
7498;DHT22;3790;48.806;9.140;2023-03-04T07:02:40;-1.10;99.90
7498;DHT22;3790;48.806;9.140;2023-03-04T07:07:41;-0.90;99.90
7498;DHT22;3790;48.806;9.140;2023-03-04T07:12:41;-0.70;99.90
7498;DHT22;3790;48.806;9.140;2023-03-04T07:17:42;-0.50;99.90
7498;DHT22;3790;48.806;9.140;2023-03-04T07:22:42;-0.30;99.90
7498;DHT22;3790;48.806;9.140;2023-03-04T07:27:43;-0.10;99.90
7498;DHT22;3790;48.806;9.140;2023-03-04T07:32:44;0.30;99.90
7498;DHT22;3790;48.806;9.140;2023-03-04T07:37:44;0.60;99.90
7498;DHT22;3790;48.806;9.140;2023-03-04T07:42:49;0.80;99.90
7498;DHT22;3790;48.806;9.140;2023-03-04T07:47:50;0.90;99.90
7498;DHT22;3790;48.806;9.140;2023-03-04T07:52:51;0.90;99.90
7498;DHT22;3790;48.806;9.140;2023-03-04T07:57:51;0.70;99.90
7498;DHT22;3790;48.806;9.140;2023-03-04T08:02:52;0.60;99.90
7498;DHT22;3790;48.806;9.140;2023-03-04T08:07:52;0.60;99.90
7498;DHT22;3790;48.806;9.140;2023-03-04T08:12:52;0.90;99.90
7498;DHT22;3790;48.806;9.140;2023-03-04T08:17:55;1.10;99.90
7498;DHT22;3790;48.806;9.140;2023-03-04T08:22:56;1.30;99.90
7498;DHT22;3790;48.806;9.140;2023-03-04T08:27:56;1.20;99.90
7498;DHT22;3790;48.806;9.140;2023-03-04T08:32:57;1.40;99.90
7498;DHT22;3790;48.806;9.140;2023-03-04T08:37:58;1.30;99.90
7498;DHT22;3790;48.806;9.140;2023-03-04T08:42:58;1.50;99.90
7498;DHT22;3790;48.806;9.140;2023-03-04T08:47:59;1.60;99.90
7498;DHT22;3790;48.806;9.140;2023-03-04T08:53:00;1.60;99.90
7498;DHT22;3790;48.806;9.140;2023-03-04T08:58:01;1.70;99.90
7498;DHT22;3790;48.806;9.140;2023-03-04T09:03:01;1.80;99.90
7498;DHT22;3790;48.806;9.140;2023-03-04T09:08:03;2.30;99.90
7498;DHT22;3790;48.806;9.140;2023-03-04T09:13:04;2.50;99.90
7498;DHT22;3790;48.806;9.140;2023-03-04T09:18:05;2.30;99.90
7498;DHT22;3790;48.806;9.140;2023-03-04T09:23:06;2.40;99.90
7498;DHT22;3790;48.806;9.140;2023-03-04T09:28:10;2.20;99.90
7498;DHT22;3790;48.806;9.140;2023-03-04T09:33:12;2.50;99.90
7498;DHT22;3790;48.806;9.140;2023-03-04T09:38:12;2.50;99.90
7498;DHT22;3790;48.806;9.140;2023-03-04T09:43:26;2.40;99.90
7498;DHT22;3790;48.806;9.140;2023-03-04T09:48:40;3.20;99.90
7498;DHT22;3790;48.806;9.140;2023-03-04T09:54:07;4.30;99.90
7498;DHT22;3790;48.806;9.140;2023-03-04T09:59:31;4.70;99.90
7498;DHT22;3790;48.806;9.140;2023-03-04T10:04:52;5.30;99.90
7498;DHT22;3790;48.806;9.140;2023-03-04T10:10:16;5.30;99.90
7498;DHT22;3790;48.806;9.140;2023-03-04T10:15:44;5.80;99.90
7498;DHT22;3790;48.806;9.140;2023-03-04T10:21:03;5.30;99.90
7498;DHT22;3790;48.806;9.140;2023-03-04T10:26:13;4.90;99.90
7498;DHT22;3790;48.806;9.140;2023-03-04T10:31:31;4.60;99.90
7498;DHT22;3790;48.806;9.140;2023-03-04T10:41:44;4.50;99.90
7498;DHT22;3790;48.806;9.140;2023-03-04T10:46:47;4.30;99.90
7498;DHT22;3790;48.806;9.140;2023-03-04T10:51:54;4.50;99.90
7498;DHT22;3790;48.806;9.140;2023-03-04T10:57:03;4.10;99.90
7498;DHT22;3790;48.806;9.140;2023-03-04T11:07:24;3.90;99.90
7498;DHT22;3790;48.806;9.140;2023-03-04T11:12:32;3.80;99.90
7498;DHT22;3790;48.806;9.140;2023-03-04T11:17:46;3.70;99.90
7498;DHT22;3790;48.806;9.140;2023-03-04T11:22:51;3.30;99.90
7498;DHT22;3790;48.806;9.140;2023-03-04T11:27:56;3.30;99.90
7498;DHT22;3790;48.806;9.140;2023-03-04T11:33:14;3.90;99.90
7498;DHT22;3790;48.806;9.140;2023-03-04T11:38:31;3.80;99.90
7498;DHT22;3790;48.806;9.140;2023-03-04T11:43:38;3.70;99.90
7498;DHT22;3790;48.806;9.140;2023-03-04T11:49:06;3.30;99.90
7498;DHT22;3790;48.806;9.140;2023-03-04T11:59:45;3.90;99.90
7498;DHT22;3790;48.806;9.140;2023-03-04T12:05:03;3.90;99.90
7498;DHT22;3790;48.806;9.140;2023-03-04T12:16:02;3.50;99.90
7498;DHT22;3790;48.806;9.140;2023-03-04T12:26:57;3.60;99.90
7498;DHT22;3790;48.806;9.140;2023-03-04T12:48:30;3.60;99.90
7498;DHT22;3790;48.806;9.140;2023-03-04T12:58:39;3.40;99.90
7498;DHT22;3790;48.806;9.140;2023-03-04T13:04:00;3.40;99.90
7498;DHT22;3790;48.806;9.140;2023-03-04T13:09:05;3.50;99.90
7498;DHT22;3790;48.806;9.140;2023-03-04T13:14:24;3.40;99.90
7498;DHT22;3790;48.806;9.140;2023-03-04T13:24:47;3.40;99.90
7498;DHT22;3790;48.806;9.140;2023-03-04T13:29:50;3.20;99.90
7498;DHT22;3790;48.806;9.140;2023-03-04T13:34:51;3.00;99.90
7498;DHT22;3790;48.806;9.140;2023-03-04T13:40:22;3.30;99.90
7498;DHT22;3790;48.806;9.140;2023-03-04T13:45:38;3.40;99.90
7498;DHT22;3790;48.806;9.140;2023-03-04T13:50:43;3.30;99.90
7498;DHT22;3790;48.806;9.140;2023-03-04T14:01:02;3.10;99.90
7498;DHT22;3790;48.806;9.140;2023-03-04T14:06:21;3.20;99.90
7498;DHT22;3790;48.806;9.140;2023-03-04T14:11:32;3.20;99.90
7498;DHT22;3790;48.806;9.140;2023-03-04T14:16:38;3.20;99.90
7498;DHT22;3790;48.806;9.140;2023-03-04T14:21:44;3.00;99.90
7498;DHT22;3790;48.806;9.140;2023-03-04T14:26:46;2.90;99.90
7498;DHT22;3790;48.806;9.140;2023-03-04T14:31:47;2.80;99.90
7498;DHT22;3790;48.806;9.140;2023-03-04T14:36:47;2.90;99.90
7498;DHT22;3790;48.806;9.140;2023-03-04T14:41:48;2.90;99.90
7498;DHT22;3790;48.806;9.140;2023-03-04T14:46:53;2.90;99.90
7498;DHT22;3790;48.806;9.140;2023-03-04T14:51:54;2.80;99.90
7498;DHT22;3790;48.806;9.140;2023-03-04T14:56:57;2.80;99.90
7498;DHT22;3790;48.806;9.140;2023-03-04T15:02:22;2.90;99.90
7498;DHT22;3790;48.806;9.140;2023-03-04T15:07:33;2.70;99.90
7498;DHT22;3790;48.806;9.140;2023-03-04T15:12:35;2.80;99.90
7498;DHT22;3790;48.806;9.140;2023-03-04T15:17:39;2.90;99.90
7498;DHT22;3790;48.806;9.140;2023-03-04T15:27:49;3.00;99.90
7498;DHT22;3790;48.806;9.140;2023-03-04T15:32:50;2.80;99.90
7498;DHT22;3790;48.806;9.140;2023-03-04T15:37:51;2.80;99.90
7498;DHT22;3790;48.806;9.140;2023-03-04T15:42:56;2.80;99.90
7498;DHT22;3790;48.806;9.140;2023-03-04T15:47:57;2.80;99.90
7498;DHT22;3790;48.806;9.140;2023-03-04T15:53:00;2.90;99.90
7498;DHT22;3790;48.806;9.140;2023-03-04T15:58:03;2.90;99.90
7498;DHT22;3790;48.806;9.140;2023-03-04T16:03:03;2.90;99.90
7498;DHT22;3790;48.806;9.140;2023-03-04T16:08:04;2.80;99.90
7498;DHT22;3790;48.806;9.140;2023-03-04T16:13:04;2.90;99.90
7498;DHT22;3790;48.806;9.140;2023-03-04T16:18:05;2.80;99.90
7498;DHT22;3790;48.806;9.140;2023-03-04T16:23:12;2.70;99.90
7498;DHT22;3790;48.806;9.140;2023-03-04T16:28:13;2.80;99.90
7498;DHT22;3790;48.806;9.140;2023-03-04T16:33:14;2.80;99.90
7498;DHT22;3790;48.806;9.140;2023-03-04T16:38:27;2.70;99.90
7498;DHT22;3790;48.806;9.140;2023-03-04T16:43:30;2.50;99.90
7498;DHT22;3790;48.806;9.140;2023-03-04T16:48:30;2.50;99.90
7498;DHT22;3790;48.806;9.140;2023-03-04T16:53:34;2.50;99.90
7498;DHT22;3790;48.806;9.140;2023-03-04T16:58:34;2.60;99.90
7498;DHT22;3790;48.806;9.140;2023-03-04T17:03:35;2.50;99.90
7498;DHT22;3790;48.806;9.140;2023-03-04T17:08:36;2.50;99.90
7498;DHT22;3790;48.806;9.140;2023-03-04T17:13:36;2.50;99.90
7498;DHT22;3790;48.806;9.140;2023-03-04T17:18:37;2.50;99.90
7498;DHT22;3790;48.806;9.140;2023-03-04T17:23:38;2.60;99.90
7498;DHT22;3790;48.806;9.140;2023-03-04T17:28:38;2.60;99.90
7498;DHT22;3790;48.806;9.140;2023-03-04T17:33:39;2.60;99.90
7498;DHT22;3790;48.806;9.140;2023-03-04T17:38:41;2.70;99.90
7498;DHT22;3790;48.806;9.140;2023-03-04T17:43:46;2.70;99.90
7498;DHT22;3790;48.806;9.140;2023-03-04T17:48:47;2.80;99.90
7498;DHT22;3790;48.806;9.140;2023-03-04T17:53:48;2.80;99.90
7498;DHT22;3790;48.806;9.140;2023-03-04T17:58:50;2.70;99.90
7498;DHT22;3790;48.806;9.140;2023-03-04T18:03:52;2.70;99.90
7498;DHT22;3790;48.806;9.140;2023-03-04T18:08:52;2.80;99.90
7498;DHT22;3790;48.806;9.140;2023-03-04T18:13:59;2.80;99.90
7498;DHT22;3790;48.806;9.140;2023-03-04T18:19:00;2.80;99.90
7498;DHT22;3790;48.806;9.140;2023-03-04T18:24:01;2.80;99.90
7498;DHT22;3790;48.806;9.140;2023-03-04T18:29:02;2.90;99.90
7498;DHT22;3790;48.806;9.140;2023-03-04T18:34:03;3.10;99.90
7498;DHT22;3790;48.806;9.140;2023-03-04T18:39:04;3.10;99.90
7498;DHT22;3790;48.806;9.140;2023-03-04T18:44:06;3.10;99.90
7498;DHT22;3790;48.806;9.140;2023-03-04T18:49:09;3.10;99.90
7498;DHT22;3790;48.806;9.140;2023-03-04T18:54:11;3.10;99.90
7498;DHT22;3790;48.806;9.140;2023-03-04T18:59:32;3.10;99.90
7498;DHT22;3790;48.806;9.140;2023-03-04T19:04:36;3.20;99.90
7498;DHT22;3790;48.806;9.140;2023-03-04T19:09:36;3.10;99.90
7498;DHT22;3790;48.806;9.140;2023-03-04T19:14:37;3.10;99.90
7498;DHT22;3790;48.806;9.140;2023-03-04T19:19:40;3.20;99.90
7498;DHT22;3790;48.806;9.140;2023-03-04T19:24:40;3.20;99.90
7498;DHT22;3790;48.806;9.140;2023-03-04T19:29:41;3.30;99.90
7498;DHT22;3790;48.806;9.140;2023-03-04T19:34:43;3.30;99.90
7498;DHT22;3790;48.806;9.140;2023-03-04T19:39:44;3.10;99.90
7498;DHT22;3790;48.806;9.140;2023-03-04T19:44:45;3.10;99.90
7498;DHT22;3790;48.806;9.140;2023-03-04T19:49:45;3.10;99.90
7498;DHT22;3790;48.806;9.140;2023-03-04T19:54:46;3.20;99.90
7498;DHT22;3790;48.806;9.140;2023-03-04T19:59:46;3.20;99.90
7498;DHT22;3790;48.806;9.140;2023-03-04T20:04:50;3.30;99.90
7498;DHT22;3790;48.806;9.140;2023-03-04T20:09:53;3.40;99.90
7498;DHT22;3790;48.806;9.140;2023-03-04T20:14:54;3.30;99.90
7498;DHT22;3790;48.806;9.140;2023-03-04T20:19:54;3.20;99.90
7498;DHT22;3790;48.806;9.140;2023-03-04T20:24:55;3.20;99.90
7498;DHT22;3790;48.806;9.140;2023-03-04T20:29:56;3.30;99.90
7498;DHT22;3790;48.806;9.140;2023-03-04T20:34:56;3.40;99.90
7498;DHT22;3790;48.806;9.140;2023-03-04T20:39:57;3.40;99.90
7498;DHT22;3790;48.806;9.140;2023-03-04T20:44:58;3.40;99.90
7498;DHT22;3790;48.806;9.140;2023-03-04T20:49:58;3.30;99.90
7498;DHT22;3790;48.806;9.140;2023-03-04T20:54:59;3.20;99.90
7498;DHT22;3790;48.806;9.140;2023-03-04T20:59:59;3.20;99.90
7498;DHT22;3790;48.806;9.140;2023-03-04T21:05:00;3.20;99.90
7498;DHT22;3790;48.806;9.140;2023-03-04T21:10:01;3.10;99.90
7498;DHT22;3790;48.806;9.140;2023-03-04T21:15:02;3.20;99.90
7498;DHT22;3790;48.806;9.140;2023-03-04T21:20:02;3.20;99.90
7498;DHT22;3790;48.806;9.140;2023-03-04T21:25:04;3.40;99.90
7498;DHT22;3790;48.806;9.140;2023-03-04T21:30:05;3.40;99.90
7498;DHT22;3790;48.806;9.140;2023-03-04T21:35:06;3.50;99.90
7498;DHT22;3790;48.806;9.140;2023-03-04T21:40:08;3.40;99.90
7498;DHT22;3790;48.806;9.140;2023-03-04T21:45:17;3.40;99.90
7498;DHT22;3790;48.806;9.140;2023-03-04T21:50:18;3.40;99.90
7498;DHT22;3790;48.806;9.140;2023-03-04T21:55:19;3.40;99.90
7498;DHT22;3790;48.806;9.140;2023-03-04T22:00:20;3.40;99.90
7498;DHT22;3790;48.806;9.140;2023-03-04T22:05:21;3.40;99.90
7498;DHT22;3790;48.806;9.140;2023-03-04T22:10:21;3.70;99.90
7498;DHT22;3790;48.806;9.140;2023-03-04T22:15:22;3.50;99.90
7498;DHT22;3790;48.806;9.140;2023-03-04T22:20:22;3.40;99.90
7498;DHT22;3790;48.806;9.140;2023-03-04T22:25:25;3.40;99.90
7498;DHT22;3790;48.806;9.140;2023-03-04T22:30:25;3.40;99.90
7498;DHT22;3790;48.806;9.140;2023-03-04T22:35:26;3.40;99.90
7498;DHT22;3790;48.806;9.140;2023-03-04T22:40:26;3.30;99.90
7498;DHT22;3790;48.806;9.140;2023-03-04T22:45:29;3.30;99.90
7498;DHT22;3790;48.806;9.140;2023-03-04T22:50:29;3.30;99.90
7498;DHT22;3790;48.806;9.140;2023-03-04T22:55:30;3.30;99.90
7498;DHT22;3790;48.806;9.140;2023-03-04T23:00:31;3.40;99.90
7498;DHT22;3790;48.806;9.140;2023-03-04T23:05:31;3.30;99.90
7498;DHT22;3790;48.806;9.140;2023-03-04T23:10:32;3.30;99.90
7498;DHT22;3790;48.806;9.140;2023-03-04T23:15:33;3.30;99.90
7498;DHT22;3790;48.806;9.140;2023-03-04T23:20:33;3.30;99.90
7498;DHT22;3790;48.806;9.140;2023-03-04T23:25:36;3.30;99.90
7498;DHT22;3790;48.806;9.140;2023-03-04T23:30:36;3.40;99.90
7498;DHT22;3790;48.806;9.140;2023-03-04T23:35:37;3.40;99.90
7498;DHT22;3790;48.806;9.140;2023-03-04T23:40:37;3.50;99.90
7498;DHT22;3790;48.806;9.140;2023-03-04T23:45:38;3.50;99.90
7498;DHT22;3790;48.806;9.140;2023-03-04T23:50:38;3.50;99.90
7498;DHT22;3790;48.806;9.140;2023-03-04T23:55:40;3.50;99.90
